sensor_id;sensor_type;location;lat;lon;timestamp;pressure;altitude;pressure_sealevel;temperature;humidity
71057;BME280;58380;48.312;9.246;2022-12-07T07:55:01;93441.47;;;-1.12;100.00
71057;BME280;58380;48.312;9.246;2022-12-07T07:57:26;93465.69;;;-0.91;100.00
71057;BME280;58380;48.312;9.246;2022-12-07T07:59:52;93459.50;;;-0.90;100.00
71057;BME280;58380;48.312;9.246;2022-12-07T08:02:19;93467.53;;;-0.78;100.00
71057;BME280;58380;48.312;9.246;2022-12-07T08:04:46;93463.16;;;-0.78;100.00
71057;BME280;58380;48.312;9.246;2022-12-07T08:07:12;93460.00;;;-0.73;100.00
71057;BME280;58380;48.312;9.246;2022-12-07T08:09:39;93467.59;;;-0.65;100.00
71057;BME280;58380;48.312;9.246;2022-12-07T08:12:06;93477.59;;;-0.62;100.00
71057;BME280;58380;48.312;9.246;2022-12-07T08:14:32;93481.25;;;-0.50;100.00
71057;BME280;58380;48.312;9.246;2022-12-07T08:16:58;93482.81;;;-0.49;99.46
71057;BME280;58380;48.312;9.246;2022-12-07T08:19:24;93482.25;;;-0.44;99.57
71057;BME280;58380;48.312;9.246;2022-12-07T08:21:49;93476.06;;;-0.43;99.54
71057;BME280;58380;48.312;9.246;2022-12-07T08:24:15;93487.69;;;-0.32;99.14
71057;BME280;58380;48.312;9.246;2022-12-07T08:26:41;93483.91;;;-0.30;99.53
71057;BME280;58380;48.312;9.246;2022-12-07T08:29:07;93466.50;;;-0.36;100.00
71057;BME280;58380;48.312;9.246;2022-12-07T08:31:33;93496.13;;;-0.10;100.00
71057;BME280;58380;48.312;9.246;2022-12-07T08:33:59;93486.34;;;-0.15;100.00
71057;BME280;58380;48.312;9.246;2022-12-07T08:36:24;93494.34;;;-0.03;100.00
71057;BME280;58380;48.312;9.246;2022-12-07T08:38:50;93479.81;;;0.03;100.00
71057;BME280;58380;48.312;9.246;2022-12-07T08:41:16;93466.38;;;-0.08;99.99
71057;BME280;58380;48.312;9.246;2022-12-07T08:43:42;93493.34;;;0.05;94.25
71057;BME280;58380;48.312;9.246;2022-12-07T08:46:28;93479.00;;;0.09;94.22
71057;BME280;58380;48.312;9.246;2022-12-07T08:49:08;93480.00;;;0.08;95.78
71057;BME280;58380;48.312;9.246;2022-12-07T08:51:38;93483.59;;;0.07;95.22
71057;BME280;58380;48.312;9.246;2022-12-07T08:54:08;93479.81;;;0.09;95.83
71057;BME280;58380;48.312;9.246;2022-12-07T08:56:36;93490.38;;;0.14;93.62
71057;BME280;58380;48.312;9.246;2022-12-07T08:59:03;93482.59;;;0.14;86.68
71057;BME280;58380;48.312;9.246;2022-12-07T09:01:30;93496.78;;;0.18;86.72
71057;BME280;58380;48.312;9.246;2022-12-07T09:03:55;93477.22;;;0.09;86.56
71057;BME280;58380;48.312;9.246;2022-12-07T09:06:21;93491.78;;;0.17;85.18
71057;BME280;58380;48.312;9.246;2022-12-07T09:08:50;93487.22;;;0.19;82.01
71057;BME280;58380;48.312;9.246;2022-12-07T09:11:18;93501.38;;;0.16;83.14
71057;BME280;58380;48.312;9.246;2022-12-07T09:13:43;93491.19;;;0.15;84.40
71057;BME280;58380;48.312;9.246;2022-12-07T09:16:09;93473.22;;;0.07;83.49
71057;BME280;58380;48.312;9.246;2022-12-07T09:18:34;93474.03;;;0.14;83.42
71057;BME280;58380;48.312;9.246;2022-12-07T09:20:59;93491.38;;;0.20;82.99
71057;BME280;58380;48.312;9.246;2022-12-07T09:23:25;93496.59;;;0.27;84.12
71057;BME280;58380;48.312;9.246;2022-12-07T09:25:53;93491.44;;;0.33;84.85
71057;BME280;58380;48.312;9.246;2022-12-07T09:28:19;93481.03;;;0.27;84.83
71057;BME280;58380;48.312;9.246;2022-12-07T09:30:48;93497.81;;;0.37;84.31
71057;BME280;58380;48.312;9.246;2022-12-07T09:33:14;93485.63;;;0.25;83.53
71057;BME280;58380;48.312;9.246;2022-12-07T09:35:47;93497.59;;;0.26;84.35
71057;BME280;58380;48.312;9.246;2022-12-07T09:38:14;93483.03;;;0.18;85.76
71057;BME280;58380;48.312;9.246;2022-12-07T09:40:40;93494.81;;;0.27;86.74
71057;BME280;58380;48.312;9.246;2022-12-07T09:43:20;93487.84;;;0.28;88.40
71057;BME280;58380;48.312;9.246;2022-12-07T09:45:51;93382.91;;;-0.51;86.57
71057;BME280;58380;48.312;9.246;2022-12-07T09:48:39;93502.22;;;0.30;86.68
71057;BME280;58380;48.312;9.246;2022-12-07T09:51:20;93490.81;;;0.31;86.66
71057;BME280;58380;48.312;9.246;2022-12-07T09:53:48;93472.06;;;0.23;86.33
71057;BME280;58380;48.312;9.246;2022-12-07T09:56:15;93447.06;;;0.02;87.77
71057;BME280;58380;48.312;9.246;2022-12-07T09:58:43;93481.00;;;0.20;87.52
71057;BME280;58380;48.312;9.246;2022-12-07T10:03:40;93471.63;;;0.32;86.51
71057;BME280;58380;48.312;9.246;2022-12-07T10:06:12;93459.66;;;0.31;85.74
71057;BME280;58380;48.312;9.246;2022-12-07T10:08:38;93462.66;;;0.35;86.96
71057;BME280;58380;48.312;9.246;2022-12-07T10:11:03;93422.13;;;0.20;87.09
71057;BME280;58380;48.312;9.246;2022-12-07T10:13:38;93443.69;;;0.41;82.01
71057;BME280;58380;48.312;9.246;2022-12-07T10:19:34;93438.72;;;0.53;82.71
71057;BME280;58380;48.312;9.246;2022-12-07T10:22:18;93440.09;;;0.62;83.56
71057;BME280;58380;48.312;9.246;2022-12-07T10:24:46;93444.28;;;0.83;83.29
71057;BME280;58380;48.312;9.246;2022-12-07T10:27:26;93451.66;;;0.93;82.36
71057;BME280;58380;48.312;9.246;2022-12-07T10:29:57;93439.41;;;1.00;81.22
71057;BME280;58380;48.312;9.246;2022-12-07T10:32:29;93426.28;;;0.75;81.49
71057;BME280;58380;48.312;9.246;2022-12-07T10:37:49;93424.97;;;1.24;81.54
71057;BME280;58380;48.312;9.246;2022-12-07T10:48:46;93417.22;;;1.62;78.80
71057;BME280;58380;48.312;9.246;2022-12-07T11:02:25;93410.13;;;1.76;80.23
71057;BME280;58380;48.312;9.246;2022-12-07T11:19:34;93385.06;;;1.50;74.49
71057;BME280;58380;48.312;9.246;2022-12-07T11:22:49;93375.06;;;1.47;74.94
71057;BME280;58380;48.312;9.246;2022-12-07T11:25:42;93380.16;;;1.67;74.56
71057;BME280;58380;48.312;9.246;2022-12-07T11:28:38;93385.53;;;1.72;78.25
71057;BME280;58380;48.312;9.246;2022-12-07T11:34:36;93331.41;;;1.56;71.06
71057;BME280;58380;48.312;9.246;2022-12-07T11:37:18;93384.34;;;2.00;68.61
71057;BME280;58380;48.312;9.246;2022-12-07T11:39:54;93382.56;;;2.00;71.80
71057;BME280;58380;48.312;9.246;2022-12-07T11:42:28;93384.03;;;1.89;68.95
71057;BME280;58380;48.312;9.246;2022-12-07T11:45:14;93368.81;;;1.93;70.21
71057;BME280;58380;48.312;9.246;2022-12-07T11:47:47;93375.84;;;1.86;69.18
71057;BME280;58380;48.312;9.246;2022-12-07T12:01:45;93359.44;;;1.54;72.20
71057;BME280;58380;48.312;9.246;2022-12-07T12:07:31;93341.06;;;1.48;72.69
71057;BME280;58380;48.312;9.246;2022-12-07T12:10:05;93345.63;;;1.53;73.09
71057;BME280;58380;48.312;9.246;2022-12-07T12:15:37;93343.28;;;1.45;75.51
71057;BME280;58380;48.312;9.246;2022-12-07T12:18:29;93344.63;;;1.54;74.84
71057;BME280;58380;48.312;9.246;2022-12-07T12:21:07;93328.03;;;1.48;74.58
71057;BME280;58380;48.312;9.246;2022-12-07T12:23:48;93304.94;;;1.34;74.84
71057;BME280;58380;48.312;9.246;2022-12-07T12:26:23;93319.44;;;1.48;75.36
71057;BME280;58380;48.312;9.246;2022-12-07T12:28:54;93338.41;;;1.55;77.73
71057;BME280;58380;48.312;9.246;2022-12-07T12:31:39;93292.34;;;1.31;78.98
71057;BME280;58380;48.312;9.246;2022-12-07T12:34:30;93333.97;;;1.62;75.41
71057;BME280;58380;48.312;9.246;2022-12-07T12:42:51;93304.03;;;1.46;74.45
71057;BME280;58380;48.312;9.246;2022-12-07T12:45:23;93332.38;;;1.61;73.52
71057;BME280;58380;48.312;9.246;2022-12-07T12:47:53;93328.78;;;1.62;74.31
71057;BME280;58380;48.312;9.246;2022-12-07T12:50:29;93329.34;;;1.64;75.31
71057;BME280;58380;48.312;9.246;2022-12-07T12:53:00;93309.22;;;1.53;75.78
71057;BME280;58380;48.312;9.246;2022-12-07T12:56:04;93300.84;;;1.44;72.74
71057;BME280;58380;48.312;9.246;2022-12-07T12:58:44;93307.97;;;1.62;73.65
71057;BME280;58380;48.312;9.246;2022-12-07T13:01:33;93326.34;;;1.67;73.10
71057;BME280;58380;48.312;9.246;2022-12-07T13:04:17;93321.75;;;1.63;72.91
71057;BME280;58380;48.312;9.246;2022-12-07T13:06:52;93325.97;;;1.57;73.81
71057;BME280;58380;48.312;9.246;2022-12-07T13:09:22;93324.81;;;1.53;73.85
71057;BME280;58380;48.312;9.246;2022-12-07T13:11:58;93266.81;;;1.21;74.00
71057;BME280;58380;48.312;9.246;2022-12-07T13:17:04;93320.72;;;1.70;72.29
71057;BME280;58380;48.312;9.246;2022-12-07T13:25:11;93301.44;;;1.46;73.48
71057;BME280;58380;48.312;9.246;2022-12-07T13:27:56;93312.78;;;1.59;74.00
71057;BME280;58380;48.312;9.246;2022-12-07T13:30:26;93291.28;;;1.45;74.46
71057;BME280;58380;48.312;9.246;2022-12-07T13:32:55;93303.00;;;1.54;73.89
71057;BME280;58380;48.312;9.246;2022-12-07T13:35:38;93304.34;;;1.63;74.50
71057;BME280;58380;48.312;9.246;2022-12-07T13:38:13;93275.16;;;1.55;73.29
71057;BME280;58380;48.312;9.246;2022-12-07T13:41:05;93295.53;;;1.64;76.01
71057;BME280;58380;48.312;9.246;2022-12-07T13:43:43;93298.56;;;1.61;72.40
71057;BME280;58380;48.312;9.246;2022-12-07T13:46:24;93256.94;;;1.29;72.85
71057;BME280;58380;48.312;9.246;2022-12-07T13:48:56;93258.97;;;1.27;72.98
71057;BME280;58380;48.312;9.246;2022-12-07T13:51:24;93298.22;;;1.51;72.95
71057;BME280;58380;48.312;9.246;2022-12-07T13:54:09;93247.00;;;1.20;73.21
71057;BME280;58380;48.312;9.246;2022-12-07T13:56:36;93298.22;;;1.51;73.18
71057;BME280;58380;48.312;9.246;2022-12-07T13:59:09;93207.16;;;0.94;72.05
71057;BME280;58380;48.312;9.246;2022-12-07T14:01:38;93279.88;;;1.39;72.05
71057;BME280;58380;48.312;9.246;2022-12-07T14:04:18;93255.97;;;1.24;71.67
71057;BME280;58380;48.312;9.246;2022-12-07T14:06:56;93194.69;;;0.78;71.42
71057;BME280;58380;48.312;9.246;2022-12-07T14:09:24;93282.13;;;1.36;71.87
71057;BME280;58380;48.312;9.246;2022-12-07T14:11:53;93261.56;;;1.27;74.90
71057;BME280;58380;48.312;9.246;2022-12-07T14:14:23;93198.06;;;0.78;75.28
71057;BME280;58380;48.312;9.246;2022-12-07T14:17:16;93283.69;;;1.37;75.58
71057;BME280;58380;48.312;9.246;2022-12-07T14:19:48;93296.06;;;1.41;77.30
71057;BME280;58380;48.312;9.246;2022-12-07T14:22:33;93295.47;;;1.39;77.62
71057;BME280;58380;48.312;9.246;2022-12-07T14:27:48;93273.13;;;1.32;78.81
71057;BME280;58380;48.312;9.246;2022-12-07T14:30:22;93264.53;;;1.31;78.36
71057;BME280;58380;48.312;9.246;2022-12-07T14:32:53;93284.44;;;1.44;78.79
71057;BME280;58380;48.312;9.246;2022-12-07T14:35:22;93269.38;;;1.27;80.01
71057;BME280;58380;48.312;9.246;2022-12-07T14:37:48;93274.94;;;1.31;80.26
71057;BME280;58380;48.312;9.246;2022-12-07T14:40:18;93309.47;;;1.45;80.48
71057;BME280;58380;48.312;9.246;2022-12-07T14:42:48;93269.69;;;1.38;81.06
71057;BME280;58380;48.312;9.246;2022-12-07T14:45:22;93245.41;;;1.19;81.79
71057;BME280;58380;48.312;9.246;2022-12-07T14:47:48;93251.38;;;1.26;80.25
71057;BME280;58380;48.312;9.246;2022-12-07T14:50:16;93289.50;;;1.39;80.11
71057;BME280;58380;48.312;9.246;2022-12-07T14:52:47;93233.13;;;1.01;80.09
71057;BME280;58380;48.312;9.246;2022-12-07T14:55:26;93280.50;;;1.35;80.28
71057;BME280;58380;48.312;9.246;2022-12-07T14:57:53;93259.44;;;1.18;80.24
71057;BME280;58380;48.312;9.246;2022-12-07T15:00:22;93269.44;;;1.14;81.07
71057;BME280;58380;48.312;9.246;2022-12-07T15:02:48;93251.69;;;1.04;82.31
71057;BME280;58380;48.312;9.246;2022-12-07T15:05:15;93203.50;;;0.70;83.39
71057;BME280;58380;48.312;9.246;2022-12-07T15:07:41;93283.38;;;1.20;83.84
71057;BME280;58380;48.312;9.246;2022-12-07T15:10:16;93251.75;;;0.91;84.75
71057;BME280;58380;48.312;9.246;2022-12-07T15:12:43;93276.47;;;1.07;84.34
71057;BME280;58380;48.312;9.246;2022-12-07T15:15:09;93287.69;;;1.07;85.43
71057;BME280;58380;48.312;9.246;2022-12-07T15:17:35;93257.38;;;0.88;85.30
71057;BME280;58380;48.312;9.246;2022-12-07T15:20:00;93286.28;;;1.05;85.27
71057;BME280;58380;48.312;9.246;2022-12-07T15:22:26;93280.50;;;0.96;85.37
71057;BME280;58380;48.312;9.246;2022-12-07T15:24:52;93280.50;;;0.96;86.00
71057;BME280;58380;48.312;9.246;2022-12-07T15:27:17;93281.72;;;0.94;86.65
71057;BME280;58380;48.312;9.246;2022-12-07T15:29:43;93203.25;;;0.33;87.08
71057;BME280;58380;48.312;9.246;2022-12-07T15:32:08;93275.38;;;0.83;87.33
71057;BME280;58380;48.312;9.246;2022-12-07T15:34:33;93208.63;;;0.38;87.44
71057;BME280;58380;48.312;9.246;2022-12-07T15:36:59;93292.31;;;0.92;87.46
71057;BME280;58380;48.312;9.246;2022-12-07T15:39:24;93281.19;;;0.85;87.93
71057;BME280;58380;48.312;9.246;2022-12-07T15:41:50;93294.91;;;0.92;87.94
71057;BME280;58380;48.312;9.246;2022-12-07T15:44:15;93227.16;;;0.55;88.19
71057;BME280;58380;48.312;9.246;2022-12-07T15:47:00;93268.13;;;0.92;88.03
71057;BME280;58380;48.312;9.246;2022-12-07T15:49:26;93260.78;;;0.82;88.10
71057;BME280;58380;48.312;9.246;2022-12-07T15:51:52;93288.13;;;0.91;87.99
71057;BME280;58380;48.312;9.246;2022-12-07T15:54:26;93279.13;;;0.94;88.29
71057;BME280;58380;48.312;9.246;2022-12-07T15:56:54;93284.31;;;0.94;88.68
71057;BME280;58380;48.312;9.246;2022-12-07T15:59:21;93264.41;;;0.81;88.49
71057;BME280;58380;48.312;9.246;2022-12-07T16:01:46;93251.66;;;0.73;88.88
71057;BME280;58380;48.312;9.246;2022-12-07T16:04:12;93249.25;;;0.64;88.56
71057;BME280;58380;48.312;9.246;2022-12-07T16:06:38;93262.66;;;0.68;88.20
71057;BME280;58380;48.312;9.246;2022-12-07T16:09:04;93278.19;;;0.81;88.76
71057;BME280;58380;48.312;9.246;2022-12-07T16:11:29;93240.09;;;0.62;88.95
71057;BME280;58380;48.312;9.246;2022-12-07T16:13:55;93240.69;;;0.57;89.36
71057;BME280;58380;48.312;9.246;2022-12-07T16:16:21;93272.56;;;0.84;88.54
71057;BME280;58380;48.312;9.246;2022-12-07T16:18:50;93269.41;;;0.82;89.11
71057;BME280;58380;48.312;9.246;2022-12-07T16:21:16;93268.22;;;0.78;88.83
71057;BME280;58380;48.312;9.246;2022-12-07T16:23:43;93257.88;;;0.65;89.23
71057;BME280;58380;48.312;9.246;2022-12-07T16:26:14;93255.06;;;0.67;89.40
71057;BME280;58380;48.312;9.246;2022-12-07T16:28:45;93246.47;;;0.66;89.62
71057;BME280;58380;48.312;9.246;2022-12-07T16:31:18;93246.50;;;0.59;89.43
71057;BME280;58380;48.312;9.246;2022-12-07T16:33:46;93267.44;;;0.71;89.78
71057;BME280;58380;48.312;9.246;2022-12-07T16:36:12;93267.63;;;0.70;89.64
71057;BME280;58380;48.312;9.246;2022-12-07T16:38:41;93235.31;;;0.52;89.75
71057;BME280;58380;48.312;9.246;2022-12-07T16:41:08;93269.63;;;0.74;89.62
71057;BME280;58380;48.312;9.246;2022-12-07T16:43:34;93265.63;;;0.72;89.69
71057;BME280;58380;48.312;9.246;2022-12-07T16:46:00;93230.13;;;0.52;89.63
71057;BME280;58380;48.312;9.246;2022-12-07T16:48:26;93252.69;;;0.65;90.00
71057;BME280;58380;48.312;9.246;2022-12-07T16:50:52;93270.81;;;0.72;90.20
71057;BME280;58380;48.312;9.246;2022-12-07T16:53:19;93267.00;;;0.74;90.21
71057;BME280;58380;48.312;9.246;2022-12-07T16:55:45;93257.03;;;0.71;89.94
71057;BME280;58380;48.312;9.246;2022-12-07T16:58:13;93235.72;;;0.62;90.34
71057;BME280;58380;48.312;9.246;2022-12-07T17:00:41;93252.63;;;0.72;90.65
71057;BME280;58380;48.312;9.246;2022-12-07T17:03:08;93201.81;;;0.37;90.59
71057;BME280;58380;48.312;9.246;2022-12-07T17:05:41;93242.47;;;0.70;90.77
71057;BME280;58380;48.312;9.246;2022-12-07T17:08:08;93239.28;;;0.68;91.11
71057;BME280;58380;48.312;9.246;2022-12-07T17:10:37;93149.25;;;0.10;91.14
71057;BME280;58380;48.312;9.246;2022-12-07T17:13:05;93243.88;;;0.66;91.50
71057;BME280;58380;48.312;9.246;2022-12-07T17:16:02;93231.53;;;0.55;91.55
71057;BME280;58380;48.312;9.246;2022-12-07T17:18:31;93214.63;;;0.32;91.98
71057;BME280;58380;48.312;9.246;2022-12-07T17:21:04;93231.94;;;0.58;92.36
71057;BME280;58380;48.312;9.246;2022-12-07T17:23:32;93232.72;;;0.59;92.41
71057;BME280;58380;48.312;9.246;2022-12-07T17:26:10;93236.88;;;0.60;92.42
71057;BME280;58380;48.312;9.246;2022-12-07T17:28:41;93225.94;;;0.51;92.54
71057;BME280;58380;48.312;9.246;2022-12-07T17:31:09;93235.72;;;0.56;92.75
71057;BME280;58380;48.312;9.246;2022-12-07T17:33:36;93205.44;;;0.36;92.96
71057;BME280;58380;48.312;9.246;2022-12-07T17:36:12;93231.31;;;0.56;93.14
71057;BME280;58380;48.312;9.246;2022-12-07T17:38:43;93231.94;;;0.58;93.06
71057;BME280;58380;48.312;9.246;2022-12-07T17:41:14;93175.72;;;0.26;93.07
71057;BME280;58380;48.312;9.246;2022-12-07T17:44:04;93224.50;;;0.62;92.86
71057;BME280;58380;48.312;9.246;2022-12-07T17:46:31;93191.66;;;0.42;93.00
71057;BME280;58380;48.312;9.246;2022-12-07T17:48:57;93224.50;;;0.62;93.30
71057;BME280;58380;48.312;9.246;2022-12-07T17:51:23;93230.28;;;0.64;93.71
71057;BME280;58380;48.312;9.246;2022-12-07T17:54:08;93222.94;;;0.54;93.87
71057;BME280;58380;48.312;9.246;2022-12-07T17:56:35;93223.94;;;0.53;94.40
71057;BME280;58380;48.312;9.246;2022-12-07T17:59:02;93223.19;;;0.46;94.35
71057;BME280;58380;48.312;9.246;2022-12-07T18:01:28;93068.22;;;-0.57;94.50
71057;BME280;58380;48.312;9.246;2022-12-07T18:03:53;93194.69;;;0.26;94.16
71057;BME280;58380;48.312;9.246;2022-12-07T18:06:19;93195.91;;;0.24;94.46
71057;BME280;58380;48.312;9.246;2022-12-07T18:08:45;93154.84;;;0.01;94.54
71057;BME280;58380;48.312;9.246;2022-12-07T18:11:10;93214.84;;;0.31;94.98
71057;BME280;58380;48.312;9.246;2022-12-07T18:13:36;93191.56;;;0.11;94.77
71057;BME280;58380;48.312;9.246;2022-12-07T18:16:08;93203.50;;;0.18;95.12
71057;BME280;58380;48.312;9.246;2022-12-07T18:18:38;93202.91;;;0.23;93.95
71057;BME280;58380;48.312;9.246;2022-12-07T18:21:11;93196.28;;;0.27;94.36
71057;BME280;58380;48.312;9.246;2022-12-07T18:23:47;93217.41;;;0.37;94.47
71057;BME280;58380;48.312;9.246;2022-12-07T18:26:15;93218.59;;;0.41;94.65
71057;BME280;58380;48.312;9.246;2022-12-07T18:28:42;93225.59;;;0.41;94.79
71057;BME280;58380;48.312;9.246;2022-12-07T18:31:09;93212.63;;;0.41;94.89
71057;BME280;58380;48.312;9.246;2022-12-07T18:33:35;93181.34;;;0.16;94.52
71057;BME280;58380;48.312;9.246;2022-12-07T18:36:02;93210.63;;;0.36;94.69
71057;BME280;58380;48.312;9.246;2022-12-07T18:38:29;93220.00;;;0.37;93.88
71057;BME280;58380;48.312;9.246;2022-12-07T18:40:55;93195.13;;;0.10;93.93
71057;BME280;58380;48.312;9.246;2022-12-07T18:43:21;93173.06;;;-0.19;93.44
71057;BME280;58380;48.312;9.246;2022-12-07T18:45:49;93120.88;;;-0.56;93.55
71057;BME280;58380;48.312;9.246;2022-12-07T18:48:16;93142.00;;;-0.53;92.74
71057;BME280;58380;48.312;9.246;2022-12-07T18:50:44;93200.22;;;-0.22;93.16
71057;BME280;58380;48.312;9.246;2022-12-07T18:53:11;93187.47;;;-0.44;93.50
71057;BME280;58380;48.312;9.246;2022-12-07T18:55:36;93187.25;;;-0.42;94.08
71057;BME280;58380;48.312;9.246;2022-12-07T18:58:03;93180.88;;;-0.39;93.86
71057;BME280;58380;48.312;9.246;2022-12-07T19:00:29;93231.50;;;-0.04;94.47
71057;BME280;58380;48.312;9.246;2022-12-07T19:02:57;93235.28;;;-0.06;94.77
71057;BME280;58380;48.312;9.246;2022-12-07T19:05:22;93233.28;;;0.03;94.62
71057;BME280;58380;48.312;9.246;2022-12-07T19:07:48;93186.41;;;-0.23;94.64
71057;BME280;58380;48.312;9.246;2022-12-07T19:10:16;93205.59;;;-0.17;94.15
71057;BME280;58380;48.312;9.246;2022-12-07T19:12:43;93227.50;;;-0.06;93.95
71057;BME280;58380;48.312;9.246;2022-12-07T19:15:10;93222.31;;;-0.06;94.56
71057;BME280;58380;48.312;9.246;2022-12-07T19:17:36;93232.09;;;-0.08;94.19
71057;BME280;58380;48.312;9.246;2022-12-07T19:20:04;93227.09;;;-0.03;94.63
71057;BME280;58380;48.312;9.246;2022-12-07T19:22:31;93193.22;;;-0.28;94.35
71057;BME280;58380;48.312;9.246;2022-12-07T19:24:57;93213.56;;;-0.18;93.26
71057;BME280;58380;48.312;9.246;2022-12-07T19:27:22;93176.69;;;-0.47;93.85
71057;BME280;58380;48.312;9.246;2022-12-07T19:29:49;93201.00;;;-0.22;94.22
71057;BME280;58380;48.312;9.246;2022-12-07T19:32:15;93208.97;;;-0.10;93.76
71057;BME280;58380;48.312;9.246;2022-12-07T19:34:42;93206.78;;;-0.19;94.40
71057;BME280;58380;48.312;9.246;2022-12-07T19:37:11;93211.94;;;-0.06;94.91
71057;BME280;58380;48.312;9.246;2022-12-07T19:39:38;93221.13;;;-0.04;94.81
71057;BME280;58380;48.312;9.246;2022-12-07T19:42:05;93208.97;;;-0.10;94.66
71057;BME280;58380;48.312;9.246;2022-12-07T19:44:31;93200.97;;;-0.08;94.23
71057;BME280;58380;48.312;9.246;2022-12-07T19:46:59;93213.09;;;0.05;94.25
71057;BME280;58380;48.312;9.246;2022-12-07T19:49:27;93172.47;;;-0.28;93.76
71057;BME280;58380;48.312;9.246;2022-12-07T19:51:58;93207.94;;;-0.02;94.38
71057;BME280;58380;48.312;9.246;2022-12-07T19:54:27;93210.31;;;-0.01;94.63
71057;BME280;58380;48.312;9.246;2022-12-07T19:56:54;93224.31;;;-0.02;94.81
71057;BME280;58380;48.312;9.246;2022-12-07T19:59:23;93223.91;;;-0.05;94.78
71057;BME280;58380;48.312;9.246;2022-12-07T20:01:50;93211.16;;;0.00;94.85
71057;BME280;58380;48.312;9.246;2022-12-07T20:04:26;93194.59;;;-0.12;93.42
71057;BME280;58380;48.312;9.246;2022-12-07T20:06:57;93183.63;;;-0.28;93.55
71057;BME280;58380;48.312;9.246;2022-12-07T20:09:24;93173.66;;;-0.24;93.33
71057;BME280;58380;48.312;9.246;2022-12-07T20:11:50;93115.50;;;-0.61;93.23
71057;BME280;58380;48.312;9.246;2022-12-07T20:14:34;93183.03;;;-0.23;93.65
71057;BME280;58380;48.312;9.246;2022-12-07T20:17:00;93192.44;;;-0.22;93.76
71057;BME280;58380;48.312;9.246;2022-12-07T20:19:26;93187.25;;;-0.29;93.59
71057;BME280;58380;48.312;9.246;2022-12-07T20:21:51;93159.13;;;-0.38;93.61
71057;BME280;58380;48.312;9.246;2022-12-07T20:24:20;93180.25;;;-0.22;93.15
71057;BME280;58380;48.312;9.246;2022-12-07T20:26:49;93173.88;;;-0.26;93.31
71057;BME280;58380;48.312;9.246;2022-12-07T20:29:18;93171.06;;;-0.24;93.62
71057;BME280;58380;48.312;9.246;2022-12-07T20:31:46;93173.66;;;-0.24;93.15
71057;BME280;58380;48.312;9.246;2022-12-07T20:34:13;93172.47;;;-0.28;93.34
71057;BME280;58380;48.312;9.246;2022-12-07T20:36:39;93163.31;;;-0.31;94.00
71057;BME280;58380;48.312;9.246;2022-12-07T20:39:05;93160.47;;;-0.23;93.97
71057;BME280;58380;48.312;9.246;2022-12-07T20:41:31;93148.34;;;-0.35;92.95
71057;BME280;58380;48.312;9.246;2022-12-07T20:44:16;93150.38;;;-0.44;92.30
71057;BME280;58380;48.312;9.246;2022-12-07T20:46:44;93162.72;;;-0.46;92.52
71057;BME280;58380;48.312;9.246;2022-12-07T20:49:12;93164.34;;;-0.58;92.53
71057;BME280;58380;48.312;9.246;2022-12-07T20:51:40;93173.72;;;-0.64;93.08
71057;BME280;58380;48.312;9.246;2022-12-07T20:54:05;93168.31;;;-0.62;93.25
71057;BME280;58380;48.312;9.246;2022-12-07T20:56:32;93162.94;;;-0.68;93.28
71057;BME280;58380;48.312;9.246;2022-12-07T20:59:00;93159.16;;;-0.65;93.32
71057;BME280;58380;48.312;9.246;2022-12-07T21:01:27;93166.31;;;-0.60;93.94
71057;BME280;58380;48.312;9.246;2022-12-07T21:03:58;93146.19;;;-0.58;93.31
71057;BME280;58380;48.312;9.246;2022-12-07T21:06:25;93163.72;;;-0.54;92.85
71057;BME280;58380;48.312;9.246;2022-12-07T21:08:54;93156.97;;;-0.68;92.72
71057;BME280;58380;48.312;9.246;2022-12-07T21:11:22;93156.56;;;-0.65;93.16
71057;BME280;58380;48.312;9.246;2022-12-07T21:13:49;93161.75;;;-0.58;93.09
71057;BME280;58380;48.312;9.246;2022-12-07T21:16:24;93158.16;;;-0.57;93.32
71057;BME280;58380;48.312;9.246;2022-12-07T21:18:51;93152.75;;;-0.62;92.48
71057;BME280;58380;48.312;9.246;2022-12-07T21:21:19;93121.69;;;-0.82;92.64
71057;BME280;58380;48.312;9.246;2022-12-07T21:23:46;93117.69;;;-0.85;93.15
71057;BME280;58380;48.312;9.246;2022-12-07T21:26:19;93129.44;;;-0.62;93.27
71057;BME280;58380;48.312;9.246;2022-12-07T21:28:47;93149.19;;;-0.55;92.71
71057;BME280;58380;48.312;9.246;2022-12-07T21:31:13;93159.56;;;-0.55;92.51
71057;BME280;58380;48.312;9.246;2022-12-07T21:33:40;93129.47;;;-0.76;92.29
71057;BME280;58380;48.312;9.246;2022-12-07T21:36:13;93142.19;;;-0.68;92.58
71057;BME280;58380;48.312;9.246;2022-12-07T21:38:41;93135.25;;;-0.67;92.38
71057;BME280;58380;48.312;9.246;2022-12-07T21:41:15;93137.25;;;-0.69;92.43
71057;BME280;58380;48.312;9.246;2022-12-07T21:43:43;93143.41;;;-0.70;92.31
71057;BME280;58380;48.312;9.246;2022-12-07T21:46:10;93131.44;;;-0.71;92.42
71057;BME280;58380;48.312;9.246;2022-12-07T21:48:36;93164.53;;;-0.53;92.58
71057;BME280;58380;48.312;9.246;2022-12-07T21:51:09;93137.81;;;-0.54;92.20
71057;BME280;58380;48.312;9.246;2022-12-07T21:53:38;93098.34;;;-0.76;92.39
71057;BME280;58380;48.312;9.246;2022-12-07T21:56:13;93128.03;;;-0.52;92.27
71057;BME280;58380;48.312;9.246;2022-12-07T21:58:42;93065.50;;;-0.95;92.52
71057;BME280;58380;48.312;9.246;2022-12-07T22:01:20;93111.28;;;-0.56;92.71
